createdAt,value
2018-09-15T00:00:54.115Z,122.90
2018-09-15T00:03:22.857Z,82.30
2018-09-15T00:05:51.314Z,78.57
2018-09-15T00:08:19.770Z,77.47
2018-09-15T00:10:48.668Z,75.13
2018-09-15T00:13:17.564Z,71.97
2018-09-15T00:15:45.983Z,71.10
2018-09-15T00:18:16.054Z,66.80
2018-09-15T00:20:44.442Z,67.67
2018-09-15T00:23:13.001Z,71.17
2018-09-15T00:25:42.283Z,69.73
2018-09-15T00:28:11.484Z,64.97
2018-09-15T00:30:40.151Z,72.60
2018-09-15T00:33:08.545Z,74.70
2018-09-15T00:35:36.954Z,68.13
2018-09-15T00:38:05.568Z,86.00
2018-09-15T00:40:33.953Z,73.23
2018-09-15T00:43:02.379Z,68.50
2018-09-15T00:45:30.776Z,64.53
2018-09-15T00:47:59.296Z,70.57
2018-09-15T00:50:27.685Z,78.70
2018-09-15T00:52:56.225Z,81.70
2018-09-15T00:55:24.729Z,82.50
2018-09-15T00:57:53.220Z,82.37
2018-09-15T01:00:21.976Z,78.50
2018-09-15T01:02:50.429Z,82.67
2018-09-15T01:05:18.911Z,77.87
2018-09-15T01:07:47.343Z,79.17
2018-09-15T01:10:15.735Z,86.27
2018-09-15T01:12:44.200Z,91.23
2018-09-15T01:15:12.618Z,95.10
2018-09-15T01:17:41.020Z,92.73
2018-09-15T01:20:09.530Z,84.47
2018-09-15T01:22:37.849Z,86.57
2018-09-15T01:25:06.235Z,123.33
2018-09-15T01:27:34.652Z,119.23
2018-09-15T01:30:03.081Z,97.37
2018-09-15T01:32:31.904Z,98.07
2018-09-15T01:35:00.307Z,99.33
2018-09-15T01:37:28.862Z,98.07
2018-09-15T01:39:57.415Z,101.07
2018-09-15T01:42:26.285Z,95.93
2018-09-15T01:44:54.766Z,93.13
2018-09-15T01:47:23.604Z,92.73
2018-09-15T01:49:52.042Z,95.17
2018-09-15T01:52:20.548Z,92.23
2018-09-15T01:54:49.005Z,88.43
2018-09-15T01:57:17.421Z,82.53
2018-09-15T01:59:45.827Z,73.83
2018-09-15T02:02:14.354Z,65.37
2018-09-15T02:04:42.773Z,58.13
2018-09-15T02:07:11.172Z,52.10
2018-09-15T02:09:39.770Z,51.33
2018-09-15T02:12:08.157Z,49.03
2018-09-15T02:14:36.566Z,49.17
2018-09-15T02:17:05.007Z,44.97
2018-09-15T02:19:33.456Z,45.93
2018-09-15T02:22:01.910Z,43.53
2018-09-15T02:24:30.338Z,44.70
2018-09-15T02:26:58.807Z,45.07
2018-09-15T02:29:27.236Z,42.77
2018-09-15T02:31:55.718Z,39.33
2018-09-15T02:34:24.187Z,38.90
2018-09-15T02:36:52.752Z,36.37
2018-09-15T02:39:21.204Z,37.07
2018-09-15T02:41:49.584Z,33.37
2018-09-15T02:44:17.990Z,31.33
2018-09-15T02:46:46.403Z,31.30
2018-09-15T02:49:14.874Z,31.20
2018-09-15T02:51:43.319Z,28.80
2018-09-15T02:54:11.760Z,27.93
2018-09-15T02:56:40.176Z,28.07
2018-09-15T02:59:08.651Z,23.23
2018-09-15T03:01:37.107Z,24.37
2018-09-15T03:04:05.582Z,23.67
2018-09-15T03:06:34.006Z,24.73
2018-09-15T03:09:02.597Z,20.50
2018-09-15T03:11:31.313Z,20.60
2018-09-15T03:13:59.700Z,20.53
2018-09-15T03:16:28.254Z,21.33
2018-09-15T03:18:56.774Z,19.87
2018-09-15T03:21:25.272Z,18.13
2018-09-15T03:23:53.726Z,20.67
2018-09-15T03:26:22.115Z,20.97
2018-09-15T03:28:50.492Z,16.40
2018-09-15T03:31:18.931Z,15.67
2018-09-15T03:33:48.059Z,12.80
2018-09-15T03:36:16.482Z,18.27
2018-09-15T03:38:44.918Z,13.83
2018-09-15T03:41:13.413Z,12.13
2018-09-15T03:43:41.844Z,14.27
2018-09-15T03:46:10.248Z,13.77
2018-09-15T03:48:38.670Z,11.73
2018-09-15T03:51:07.117Z,12.27
2018-09-15T03:53:35.536Z,11.53
2018-09-15T03:56:03.943Z,10.67
2018-09-15T03:58:32.331Z,11.73
2018-09-15T04:01:00.738Z,10.33
2018-09-15T04:03:29.166Z,8.67
2018-09-15T04:05:57.556Z,12.93
2018-09-15T04:08:25.951Z,9.27
2018-09-15T04:10:54.326Z,9.00
2018-09-15T04:13:22.811Z,8.63
2018-09-15T04:15:51.481Z,10.23
2018-09-15T04:18:19.886Z,8.93
2018-09-15T04:20:49.036Z,9.50
2018-09-15T04:23:17.716Z,7.73
2018-09-15T04:25:46.488Z,11.50
2018-09-15T04:28:14.905Z,6.87
2018-09-15T04:30:43.470Z,9.47
2018-09-15T04:33:11.872Z,7.67
2018-09-15T04:35:40.950Z,7.63
2018-09-15T04:38:09.370Z,7.07
2018-09-15T04:40:37.890Z,8.17
2018-09-15T04:43:06.291Z,5.53
2018-09-15T04:45:34.693Z,7.70
2018-09-15T04:48:03.083Z,6.53
2018-09-15T04:50:31.455Z,7.53
2018-09-15T04:52:59.834Z,7.80
2018-09-15T04:55:28.223Z,6.77
2018-09-15T04:57:56.602Z,7.03
2018-09-15T05:00:24.996Z,6.27
2018-09-15T05:02:53.379Z,4.57
2018-09-15T05:05:21.757Z,4.57
2018-09-15T05:07:50.135Z,5.47
2018-09-15T05:10:18.511Z,5.47
2018-09-15T05:12:46.957Z,4.73
2018-09-15T05:15:15.338Z,5.60
2018-09-15T05:17:43.765Z,4.07
2018-09-15T05:20:12.145Z,5.80
2018-09-15T05:22:40.551Z,6.07
2018-09-15T05:25:08.931Z,4.70
2018-09-15T05:27:37.315Z,5.90
2018-09-15T05:30:06.548Z,3.30
2018-09-15T05:32:34.979Z,4.40
2018-09-15T05:35:03.350Z,4.80
2018-09-15T05:37:31.751Z,4.73
2018-09-15T05:40:00.317Z,4.87
2018-09-15T05:42:28.659Z,5.27
2018-09-15T05:44:57.024Z,5.83
2018-09-15T05:47:25.518Z,3.33
2018-09-15T05:49:53.884Z,3.47
2018-09-15T05:52:22.268Z,3.90
2018-09-15T05:54:50.782Z,2.97
2018-09-15T05:57:19.323Z,4.80
2018-09-15T05:59:47.696Z,3.80
2018-09-15T06:02:16.101Z,3.53
2018-09-15T06:04:44.545Z,3.77
2018-09-15T06:07:12.914Z,3.00
2018-09-15T06:09:41.316Z,4.20
2018-09-15T06:12:09.682Z,3.50
2018-09-15T06:14:38.075Z,4.10
2018-09-15T06:17:06.438Z,2.33
2018-09-15T06:19:34.856Z,4.27
2018-09-15T06:22:03.243Z,4.63
2018-09-15T06:24:31.639Z,4.03
2018-09-15T06:27:00.092Z,3.90
2018-09-15T06:29:28.491Z,3.50
2018-09-15T06:31:57.092Z,2.90
2018-09-15T06:34:25.649Z,2.33
2018-09-15T06:36:54.113Z,3.30
2018-09-15T06:39:22.594Z,4.03
2018-09-15T06:41:50.989Z,4.03
2018-09-15T06:44:19.392Z,3.20
2018-09-15T06:46:47.983Z,3.90
2018-09-15T06:49:16.369Z,3.67
2018-09-15T06:51:44.784Z,3.80
2018-09-15T06:54:13.205Z,3.67
2018-09-15T06:56:41.667Z,3.67
2018-09-15T06:59:10.031Z,3.93
2018-09-15T07:01:40.507Z,4.33
2018-09-15T07:04:11.039Z,3.93
2018-09-15T07:06:39.532Z,3.27
2018-09-15T07:09:10.040Z,4.67
2018-09-15T07:11:38.439Z,3.20
2018-09-15T07:14:07.128Z,2.93
2018-09-15T07:16:35.571Z,3.63
2018-09-15T07:19:04.410Z,3.70
2018-09-15T07:21:32.807Z,3.53
2018-09-15T07:24:01.211Z,1.77
2018-09-15T07:26:29.921Z,3.23
2018-09-15T07:28:58.336Z,4.10
2018-09-15T07:31:26.703Z,3.53
2018-09-15T07:33:55.179Z,2.77
2018-09-15T07:36:23.573Z,3.37
2018-09-15T07:38:51.972Z,3.10
2018-09-15T07:41:20.374Z,2.90
2018-09-15T07:43:48.736Z,3.63
2018-09-15T07:46:17.142Z,2.90
2018-09-15T07:48:45.770Z,4.10
2018-09-15T07:51:14.150Z,2.70
2018-09-15T07:53:42.551Z,2.87
2018-09-15T07:56:10.939Z,3.40
2018-09-15T07:58:39.360Z,3.87
2018-09-15T08:01:07.735Z,13.70
2018-09-15T08:03:36.174Z,60.43
2018-09-15T08:06:04.709Z,81.43
2018-09-15T08:08:33.121Z,60.13
2018-09-15T08:11:01.587Z,53.57
2018-09-15T08:13:29.998Z,53.50
2018-09-15T08:15:58.589Z,27.87
2018-09-15T08:18:26.988Z,45.77
2018-09-15T08:20:55.536Z,27.47
2018-09-15T08:23:23.883Z,16.63
2018-09-15T08:25:52.297Z,18.57
2018-09-15T08:28:20.690Z,16.57
2018-09-15T08:30:49.091Z,21.57
2018-09-15T08:33:17.470Z,17.47
2018-09-15T08:35:45.918Z,25.47
2018-09-15T08:38:14.311Z,42.33
2018-09-15T08:40:42.731Z,58.70
2018-09-15T08:43:11.129Z,41.80
2018-09-15T08:45:40.972Z,36.13
2018-09-15T08:48:09.445Z,36.30
2018-09-15T08:50:38.396Z,37.93
2018-09-15T08:53:06.944Z,34.87
2018-09-15T08:55:35.436Z,43.27
2018-09-15T08:58:03.902Z,43.67
2018-09-15T09:00:32.397Z,55.07
2018-09-15T09:03:00.976Z,41.13
2018-09-15T09:05:29.468Z,28.93
2018-09-15T09:07:58.274Z,25.30
2018-09-15T09:10:26.880Z,32.57
2018-09-15T09:12:55.334Z,32.33
2018-09-15T09:15:23.823Z,60.63
2018-09-15T09:17:52.424Z,37.37
2018-09-15T09:20:20.878Z,58.83
2018-09-15T09:22:49.340Z,46.37
2018-09-15T09:25:17.810Z,49.90
2018-09-15T09:27:46.341Z,43.80
2018-09-15T09:30:14.819Z,43.37
2018-09-15T09:32:43.203Z,45.53
2018-09-15T09:35:11.649Z,34.80
2018-09-15T09:37:40.281Z,36.83
2018-09-15T09:40:08.693Z,40.30
2018-09-15T09:42:37.142Z,36.90
2018-09-15T09:45:06.850Z,29.50
2018-09-15T09:47:35.272Z,31.10
2018-09-15T09:50:03.907Z,30.33
2018-09-15T09:52:32.483Z,34.33
2018-09-15T09:55:00.914Z,35.03
2018-09-15T09:57:29.361Z,42.73
2018-09-15T09:59:58.507Z,43.77
2018-09-15T10:02:27.012Z,43.23
2018-09-15T10:04:58.344Z,33.03
2018-09-15T10:07:26.764Z,31.00
2018-09-15T10:09:55.155Z,26.33
2018-09-15T10:12:23.571Z,27.80
2018-09-15T10:14:52.008Z,25.47
2018-09-15T10:17:20.410Z,24.13
2018-09-15T10:19:48.908Z,30.73
2018-09-15T10:22:17.355Z,35.93
2018-09-15T10:24:45.965Z,37.83
2018-09-15T10:27:14.359Z,37.37
2018-09-15T10:29:42.759Z,32.60
2018-09-15T10:32:11.187Z,30.73
2018-09-15T10:34:39.600Z,25.40
2018-09-15T10:37:08.077Z,30.03
2018-09-15T10:39:36.552Z,28.17
2018-09-15T10:42:04.924Z,60.17
2018-09-15T10:44:33.402Z,34.70
2018-09-15T10:47:01.807Z,58.67
2018-09-15T10:49:30.225Z,44.87
2018-09-15T10:51:58.652Z,53.20
2018-09-15T10:54:27.094Z,45.13
2018-09-15T10:56:55.522Z,39.50
2018-09-15T10:59:23.891Z,39.77
2018-09-15T11:01:52.486Z,36.37
2018-09-15T11:04:20.890Z,37.13
2018-09-15T11:06:49.282Z,39.53
2018-09-15T11:09:17.701Z,34.20
2018-09-15T11:11:46.090Z,31.80
2018-09-15T11:14:14.509Z,29.97
2018-09-15T11:16:42.883Z,31.50
2018-09-15T11:19:11.325Z,59.10
2018-09-15T11:21:39.720Z,43.53
2018-09-15T11:24:08.115Z,41.50
2018-09-15T11:26:36.761Z,39.10
2018-09-15T11:29:05.318Z,35.57
2018-09-15T11:31:33.699Z,34.07
2018-09-15T11:34:02.126Z,33.73
2018-09-15T11:36:30.483Z,39.00
2018-09-15T11:38:58.895Z,62.40
2018-09-15T11:41:27.279Z,79.47
2018-09-15T11:43:55.668Z,57.23
2018-09-15T11:46:24.076Z,57.57
2018-09-15T11:48:52.434Z,50.07
2018-09-15T11:51:20.838Z,50.87
2018-09-15T11:53:49.480Z,45.87
2018-09-15T11:56:17.993Z,39.73
2018-09-15T11:58:46.393Z,39.90
2018-09-15T12:01:14.777Z,46.93
2018-09-15T12:03:43.180Z,41.20
2018-09-15T12:06:11.660Z,39.83
2018-09-15T12:08:40.048Z,40.03
2018-09-15T12:11:08.605Z,41.90
2018-09-15T12:13:37.071Z,38.80
2018-09-15T12:16:05.460Z,35.97
2018-09-15T12:18:33.838Z,37.20
2018-09-15T12:21:02.268Z,32.87
2018-09-15T12:23:30.653Z,31.10
2018-09-15T12:25:59.066Z,30.83
2018-09-15T12:28:27.480Z,34.97
2018-09-15T12:30:55.874Z,43.47
2018-09-15T12:33:24.744Z,44.97
2018-09-15T12:35:53.248Z,40.47
2018-09-15T12:38:21.806Z,39.60
2018-09-15T12:40:50.206Z,35.17
2018-09-15T12:43:18.583Z,35.03
2018-09-15T12:45:46.951Z,31.70
2018-09-15T12:48:15.347Z,32.00
2018-09-15T12:50:43.733Z,30.70
2018-09-15T12:53:12.138Z,31.27
2018-09-15T12:55:40.529Z,29.10
2018-09-15T12:58:08.917Z,27.13
2018-09-15T13:00:37.568Z,25.23
2018-09-15T13:03:05.987Z,33.07
2018-09-15T13:05:34.383Z,37.83
2018-09-15T13:08:02.863Z,48.17
2018-09-15T13:10:31.271Z,50.00
2018-09-15T13:12:59.691Z,46.53
2018-09-15T13:15:28.145Z,42.50
2018-09-15T13:17:56.542Z,42.60
2018-09-15T13:20:24.933Z,37.57
2018-09-15T13:22:53.406Z,36.40
2018-09-15T13:25:21.771Z,35.33
2018-09-15T13:27:50.138Z,33.60
2018-09-15T13:30:18.803Z,29.33
2018-09-15T13:32:47.103Z,29.50
2018-09-15T13:35:15.477Z,27.70
2018-09-15T13:37:43.873Z,29.70
2018-09-15T13:40:12.301Z,26.50
2018-09-15T13:42:40.701Z,24.73
2018-09-15T13:45:09.078Z,26.53
2018-09-15T13:50:00.855Z,25.53
2018-09-15T13:52:29.223Z,39.10
2018-09-15T13:54:57.616Z,49.07
2018-09-15T13:57:26.077Z,48.10
2018-09-15T13:59:54.475Z,44.63
2018-09-15T14:02:23.183Z,43.27
2018-09-15T14:04:51.570Z,37.63
2018-09-15T14:07:20.211Z,35.83
2018-09-15T14:09:48.672Z,48.20
2018-09-15T14:12:17.102Z,45.80
2018-09-15T14:14:45.482Z,43.80
2018-09-15T14:17:14.096Z,40.70
2018-09-15T14:19:42.535Z,34.70
2018-09-15T14:22:11.137Z,35.63
2018-09-15T14:24:39.633Z,33.40
2018-09-15T14:27:08.165Z,32.63
2018-09-15T14:29:36.584Z,31.87
2018-09-15T14:32:05.153Z,27.43
2018-09-15T14:34:33.574Z,27.07
2018-09-15T14:37:01.952Z,29.50
2018-09-15T14:39:30.395Z,29.63
2018-09-15T14:41:58.779Z,25.23
2018-09-15T14:44:27.255Z,28.37
2018-09-15T14:46:55.747Z,26.80
2018-09-15T14:49:24.143Z,28.13
2018-09-15T14:51:52.539Z,23.77
2018-09-15T14:54:20.931Z,27.20
2018-09-15T14:56:49.483Z,27.73
2018-09-15T14:59:21.671Z,32.23
2018-09-15T15:01:50.100Z,29.63
2018-09-15T15:04:18.552Z,38.63
2018-09-15T15:06:46.932Z,37.60
2018-09-15T15:09:15.330Z,38.17
2018-09-15T15:11:43.735Z,50.03
2018-09-15T15:14:12.175Z,53.63
2018-09-15T15:16:40.678Z,42.47
2018-09-15T15:19:12.652Z,41.37
2018-09-15T15:21:41.043Z,44.00
2018-09-15T15:24:09.612Z,57.57
2018-09-15T15:26:38.083Z,53.50
2018-09-15T15:29:06.516Z,53.10
2018-09-15T15:31:34.963Z,55.47
2018-09-15T15:34:03.422Z,57.83
2018-09-15T15:36:31.821Z,53.73
2018-09-15T15:39:00.223Z,52.30
2018-09-15T15:41:28.595Z,49.87
2018-09-15T15:43:57.080Z,56.00
2018-09-15T15:46:25.365Z,51.53
2018-09-15T15:48:53.790Z,49.93
2018-09-15T15:51:22.209Z,52.23
2018-09-15T15:53:50.625Z,52.20
2018-09-15T15:56:19.323Z,46.43
2018-09-15T15:58:48.127Z,50.77
2018-09-15T16:01:16.463Z,45.60
2018-09-15T16:03:44.936Z,45.07
2018-09-15T16:06:13.459Z,45.50
2018-09-15T16:08:41.941Z,46.30
2018-09-15T16:11:10.350Z,48.73
2018-09-15T16:13:38.852Z,47.47
2018-09-15T16:16:07.195Z,49.73
2018-09-15T16:18:35.588Z,48.20
2018-09-15T16:21:03.996Z,49.20
2018-09-15T16:23:32.384Z,48.20
2018-09-15T16:26:00.806Z,51.80
2018-09-15T16:28:29.219Z,42.30
2018-09-15T16:30:57.721Z,47.00
2018-09-15T16:33:26.122Z,48.43
2018-09-15T16:35:54.576Z,48.43
2018-09-15T16:38:23.007Z,54.30
2018-09-15T16:40:51.455Z,53.57
2018-09-15T16:43:19.865Z,49.03
2018-09-15T16:45:48.372Z,59.67
2018-09-15T16:48:16.754Z,79.63
2018-09-15T16:50:45.141Z,70.10
2018-09-15T16:53:13.554Z,92.13
2018-09-15T16:55:41.936Z,104.33
2018-09-15T16:58:10.354Z,111.77
2018-09-15T17:00:38.869Z,103.33
2018-09-15T17:03:07.343Z,98.13
2018-09-15T17:05:35.845Z,97.37
2018-09-15T17:08:04.328Z,85.97
2018-09-15T17:10:32.752Z,90.97
2018-09-15T17:13:01.146Z,89.90
2018-09-15T17:15:29.594Z,85.37
2018-09-15T17:17:57.990Z,81.87
2018-09-15T17:20:26.375Z,87.27
2018-09-15T17:22:54.838Z,84.10
2018-09-15T17:25:23.255Z,83.40
2018-09-15T17:27:51.657Z,79.10
2018-09-15T17:30:20.035Z,71.23
2018-09-15T17:32:48.443Z,70.57
2018-09-15T17:35:16.830Z,69.83
2018-09-15T17:37:45.215Z,66.50
2018-09-15T17:40:13.619Z,67.37
2018-09-15T17:42:42.087Z,64.50
2018-09-15T17:45:10.557Z,64.87
2018-09-15T17:47:39.051Z,60.20
2018-09-15T17:50:07.544Z,60.53
2018-09-15T17:52:36.024Z,61.00
2018-09-15T17:55:04.545Z,59.67
2018-09-15T17:57:32.867Z,57.77
2018-09-15T18:00:01.252Z,60.60
2018-09-15T18:02:29.738Z,58.30
2018-09-15T18:04:58.107Z,55.77
2018-09-15T18:07:26.480Z,55.27
2018-09-15T18:09:54.908Z,54.13
2018-09-15T18:12:23.544Z,55.60
2018-09-15T18:14:52.020Z,56.67
2018-09-15T18:17:20.391Z,49.83
2018-09-15T18:19:48.880Z,53.23
2018-09-15T18:22:17.388Z,57.80
2018-09-15T18:24:46.032Z,57.07
2018-09-15T18:27:14.438Z,63.17
2018-09-15T18:29:42.903Z,69.13
2018-09-15T18:32:11.291Z,89.83
2018-09-15T18:34:39.783Z,87.13
2018-09-15T18:37:08.203Z,74.63
2018-09-15T18:39:36.684Z,78.97
2018-09-15T18:42:05.191Z,74.23
2018-09-15T18:44:33.633Z,78.67
2018-09-15T18:47:02.162Z,80.93
2018-09-15T18:49:30.556Z,80.70
2018-09-15T18:51:58.934Z,95.27
2018-09-15T18:54:27.430Z,89.37
2018-09-15T18:56:55.826Z,94.50
2018-09-15T18:59:24.251Z,90.77
2018-09-15T19:01:52.623Z,88.20
2018-09-15T19:04:21.052Z,86.00
2018-09-15T19:06:49.436Z,86.87
2018-09-15T19:09:17.808Z,89.27
2018-09-15T19:11:46.204Z,97.30
2018-09-15T19:14:14.976Z,95.30
2018-09-15T19:16:43.323Z,100.77
2018-09-15T19:19:11.703Z,103.77
2018-09-15T19:21:40.100Z,95.17
2018-09-15T19:24:08.510Z,96.33
2018-09-15T19:26:36.978Z,90.77
2018-09-15T19:29:05.515Z,95.30
2018-09-15T19:31:33.898Z,94.37
2018-09-15T19:34:02.291Z,92.50
2018-09-15T19:36:30.735Z,96.70
2018-09-15T19:38:59.185Z,102.13
2018-09-15T19:41:27.651Z,94.50
2018-09-15T19:43:56.032Z,96.23
2018-09-15T19:46:24.701Z,94.30
2018-09-15T19:48:53.203Z,94.30
2018-09-15T19:51:21.572Z,95.17
2018-09-15T19:53:49.958Z,93.00
2018-09-15T19:56:18.388Z,91.10
2018-09-15T19:58:46.813Z,93.17
2018-09-15T20:01:15.288Z,90.03
2018-09-15T20:03:43.678Z,89.57
2018-09-15T20:06:12.134Z,85.13
2018-09-15T20:08:40.489Z,74.70
2018-09-15T20:11:08.858Z,83.10
2018-09-15T20:13:37.247Z,83.63
2018-09-15T20:16:04.574Z,89.63
2018-09-15T20:18:31.912Z,87.73
2018-09-15T20:20:59.200Z,86.07
2018-09-15T20:23:27.633Z,83.27
2018-09-15T20:25:56.029Z,82.53
2018-09-15T20:28:24.418Z,81.63
2018-09-15T20:30:52.813Z,83.20
2018-09-15T20:33:21.200Z,80.33
2018-09-15T20:35:49.565Z,75.00
2018-09-15T20:38:17.966Z,75.50
2018-09-15T20:40:46.383Z,75.63
2018-09-15T20:43:14.832Z,74.33
2018-09-15T20:45:43.603Z,76.10
2018-09-15T20:48:12.019Z,75.17
2018-09-15T20:50:40.417Z,72.37
2018-09-15T20:53:08.847Z,73.80
2018-09-15T20:55:37.211Z,74.87
2018-09-15T20:58:05.904Z,70.10
2018-09-15T21:00:34.278Z,69.93
2018-09-15T21:03:02.667Z,67.57
2018-09-15T21:05:31.040Z,64.30
2018-09-15T21:07:59.549Z,66.87
2018-09-15T21:10:27.946Z,64.87
2018-09-15T21:12:56.356Z,56.57
2018-09-15T21:15:24.739Z,61.83
2018-09-15T21:17:53.114Z,57.30
2018-09-15T21:20:21.564Z,57.70
2018-09-15T21:22:49.966Z,62.83
2018-09-15T21:25:18.333Z,63.73
2018-09-15T21:27:46.791Z,60.60
2018-09-15T21:30:15.171Z,59.77
2018-09-15T21:32:43.570Z,66.53
2018-09-15T21:35:11.980Z,77.70
2018-09-15T21:37:40.508Z,107.33
2018-09-15T21:40:08.956Z,96.47
2018-09-15T21:42:37.342Z,95.87
2018-09-15T21:45:06.027Z,97.37
2018-09-15T21:47:34.402Z,95.87
2018-09-15T21:50:02.790Z,95.97
2018-09-15T21:52:31.654Z,95.60
2018-09-15T21:55:00.043Z,94.20
2018-09-15T21:57:28.414Z,96.57
2018-09-15T21:59:56.819Z,96.93
2018-09-15T22:02:25.271Z,98.37
2018-09-15T22:04:53.640Z,112.60
2018-09-15T22:07:22.028Z,111.60
2018-09-15T22:09:50.453Z,111.07
2018-09-15T22:12:18.842Z,116.83
2018-09-15T22:14:47.319Z,114.50
2018-09-15T22:17:15.701Z,116.10
2018-09-15T22:19:44.151Z,115.00
2018-09-15T22:22:12.588Z,100.27
2018-09-15T22:24:41.091Z,112.83
2018-09-15T22:27:09.618Z,111.77
2018-09-15T22:29:38.171Z,139.63
2018-09-15T22:32:07.257Z,142.70
2018-09-15T22:34:35.676Z,124.27
2018-09-15T22:37:04.454Z,126.20
2018-09-15T22:39:33.188Z,130.43
2018-09-15T22:42:01.550Z,126.30
2018-09-15T22:44:30.104Z,124.60
2018-09-15T22:46:58.821Z,126.33
2018-09-15T22:49:27.767Z,127.77
2018-09-15T22:51:56.391Z,124.60
2018-09-15T22:54:24.929Z,124.83
2018-09-15T22:56:53.591Z,123.47
2018-09-15T22:59:21.958Z,110.90
2018-09-15T23:01:50.334Z,111.33
2018-09-15T23:04:18.711Z,105.97
2018-09-15T23:06:47.110Z,104.40
2018-09-15T23:09:15.512Z,108.27
2018-09-15T23:11:43.894Z,109.07
2018-09-15T23:14:12.304Z,109.57
2018-09-15T23:16:40.805Z,105.40
2018-09-15T23:19:09.309Z,107.53
2018-09-15T23:21:37.736Z,107.37
2018-09-15T23:24:06.099Z,96.63
2018-09-15T23:26:34.640Z,108.17
2018-09-15T23:29:03.004Z,106.60
2018-09-15T23:31:31.435Z,120.43
2018-09-15T23:33:59.919Z,124.00
2018-09-15T23:36:28.320Z,114.83
2018-09-15T23:38:56.819Z,119.47
2018-09-15T23:41:25.295Z,112.43
2018-09-15T23:43:53.696Z,110.70
2018-09-15T23:46:22.071Z,116.73
2018-09-15T23:48:50.473Z,110.17
2018-09-15T23:51:18.855Z,110.80
2018-09-15T23:53:47.243Z,107.27
2018-09-15T23:56:15.645Z,130.30
2018-09-15T23:58:44.073Z,138.30
